23 maggio 2022

Tempo Codice Tempo metereologico Temp. Vista Nuvole Vento METAR/SPECI
08:55
V
18 °C 10 km+ 17.000 ft 100°   100° 7 kt METAR EHVK 230655Z AUTO 10007KT 070V140 9999 OVC170 18/12 Q1003 BLU NOSIG
08:25
V
17 °C 10 km+ 18.000 ft 100°   100° 7 kt METAR EHVK 230625Z AUTO 10007KT 070V140 9999 OVC180 17/12 Q1003 BLU NOSIG
07:57
V
16 °C 10 km+ 19.000 ft 090°   090° 6 kt METAR EHVK 230557Z AUTO 09006KT 060V130 9999 OVC190 16/12 Q1003 BLU NOSIG
07:55
V
16 °C 10 km+ 20.000 ft 100°   100° 5 kt METAR EHVK 230555Z AUTO 10005KT 060V130 9999 OVC200 16/12 Q1003 BLU
07:25
V
16 °C 10 km+ 14.000 ft 090°   090° 4 kt METAR EHVK 230525Z AUTO 09004KT 050V130 9999 OVC140 16/12 Q1004 BLU
06:55
V
15 °C 10 km+ 14.000 ft 090°   090° 4 kt METAR EHVK 230455Z AUTO 09004KT 060V120 9999 OVC140 15/11 Q1004 BLU
06:25
V
14 °C 10 km+ 13.000 ft 090°   090° 3 kt METAR EHVK 230425Z AUTO 09003KT 050V140 9999 OVC130 14/11 Q1005 BLU
05:55
V
15 °C 10 km+ 13.000 ft 100°   100° 5 kt METAR EHVK 230355Z AUTO 10005KT 9999 OVC130 15/11 Q1005 BLU
05:25
V
15 °C 10 km+ 15.000 ft 100°   100° 5 kt METAR EHVK 230325Z AUTO 10005KT 080V140 9999 OVC150 15/10 Q1005 BLU
04:55
V
14 °C 10 km+ 12.000 ft 090°   090° 4 kt METAR EHVK 230255Z AUTO 09004KT 9999 OVC120 14/10 Q1006 BLU
04:25
V
14 °C 10 km+ 11.000 ft 080°   080° 4 kt METAR EHVK 230225Z AUTO 08004KT 9999 OVC110 14/10 Q1006 BLU
03:55
V
15 °C 10 km+ 10.000 ft 070°   070° 4 kt METAR EHVK 230155Z AUTO 07004KT 050V110 9999 OVC100 15/10 Q1007 BLU
03:25
V
16 °C 10 km+ 11.000 ft 030°   030° 4 kt METAR EHVK 230125Z AUTO 03004KT 9999 OVC110 16/10 Q1007 BLU
02:55
V
16 °C 10 km+ 10.000 ft 060°   060° 5 kt METAR EHVK 230055Z AUTO 06005KT 9999 SCT098 OVC100 16/10 Q1007 BLU
02:25
V
16 °C 10 km+ 8.100 ft 070°   070° 8 kt METAR EHVK 230025Z AUTO 07008KT 9999 SCT073 BKN081 OVC087 16/10 Q1007 BLU
01:55
V
17 °C 10 km+ 9.500 ft 080°   080° 7 kt METAR EHVK 222355Z AUTO 08007KT 050V110 9999 SCT089 BKN095 OVC100 17/10 Q1008 BLU
01:25
V
17 °C 10 km+ 10.000 ft 090°   090° 7 kt METAR EHVK 222325Z AUTO 09007KT 070V130 9999 FEW091 OVC100 17/10 Q1008 BLU
00:55
V
17 °C 10 km+ 12.000 ft 090°   090° 7 kt METAR EHVK 222255Z AUTO 09007KT 070V140 9999 OVC120 17/10 Q1009 BLU
00:25
V
17 °C 10 km+ 9.100 ft 080°   080° 6 kt METAR EHVK 222225Z AUTO 08006KT 9999 FEW072 BKN091 BKN097 17/10 Q1009 BLU

22 maggio 2022

Tempo Codice Tempo metereologico Temp. Vista Nuvole Vento METAR/SPECI
23:55
V
17 °C 10 km+ 11.000 ft 080°   080° 6 kt METAR EHVK 222155Z AUTO 08006KT 060V120 9999 OVC110 17/11 Q1009 BLU
23:25
V
16 °C 10 km+ 12.000 ft 080°   080° 4 kt METAR EHVK 222125Z AUTO 08004KT 9999 OVC120 16/11 Q1009 BLU
22:55
V
17 °C 10 km+ 15.000 ft 060°   060° 4 kt METAR EHVK 222055Z AUTO 06004KT 9999 FEW100 OVC150 17/10 Q1010 BLU
22:25
V
17 °C 10 km+ 10.000 ft 050°   050° 4 kt METAR EHVK 222025Z AUTO 05004KT 9999 BKN100 OVC180 17/11 Q1010 BLU
21:55
V
18 °C 10 km+ 19.000 ft 050°   050° 3 kt METAR EHVK 221955Z AUTO 05003KT 9999 OVC190 18/11 Q1010 BLU
21:25
V
18 °C 10 km+ 19.000 ft 060°   060° 4 kt METAR EHVK 221925Z AUTO 06004KT 9999 OVC190 18/11 Q1010 BLU
20:55
V
19 °C 10 km+ 20.000 ft 060°   060° 5 kt METAR EHVK 221855Z AUTO 06005KT 9999 OVC200 19/11 Q1010 BLU
20:25
V
20 °C 10 km+ 20.000 ft 060°   060° 6 kt METAR EHVK 221825Z AUTO 06006KT 9999 FEW098 OVC200 20/11 Q1010 BLU
19:55
V
21 °C 10 km+ 27.000 ft 070°   070° 7 kt METAR EHVK 221755Z AUTO 07007KT 030V110 9999 OVC270 21/10 Q1011 BLU
19:25
V
22 °C 10 km+ 33.000 ft 080°   080° 7 kt METAR EHVK 221725Z AUTO 08007KT 040V110 9999 SCT280 OVC330 22/09 Q1011 BLU
18:55
V
22 °C 10 km+ 28.000 ft 100°   100° 6 kt METAR EHVK 221655Z AUTO 10006KT 050V120 9999 BKN280 OVC340 22/10 Q1011 BLU
18:25
V
22 °C 10 km+ 32.000 ft 080°   080° 6 kt METAR EHVK 221625Z AUTO 08006KT 030V150 9999 FEW100 OVC320 22/10 Q1012 BLU
17:55
V
22 °C 10 km+ 30.000 ft 110°   110° 6 kt METAR EHVK 221555Z AUTO 11006KT 020V110 9999 OVC300 22/10 Q1012 BLU
17:25
V
22 °C 10 km+ 38.000 ft 150°   150° 4 kt METAR EHVK 221525Z AUTO 15004KT 040V140 9999 FEW310 BKN380 22/09 Q1012 BLU
16:55
V
22 °C 10 km+ - 150°   150° 5 kt METAR EHVK 221455Z AUTO 15005KT 050V170 9999 NCD 22/10 Q1013 BLU
16:25
V
21 °C 10 km+ - 110°   110° 7 kt METAR EHVK 221425Z AUTO 11007KT 060V190 9999 NCD 21/09 Q1013 BLU
15:55
V
22 °C 10 km+ - Var   Var 3 kt METAR EHVK 221355Z AUTO VRB03KT 9999 NCD 22/10 Q1013 BLU
15:25
V
21 °C 10 km+ - 110°   110° 6 kt METAR EHVK 221325Z AUTO 11006KT 020V190 9999 NCD 21/09 Q1014 BLU
14:55
V
21 °C 10 km+ - 120°   120° 4 kt METAR EHVK 221255Z AUTO 12004KT 340V150 9999 NCD 21/09 Q1014 BLU
14:25
V
20 °C 10 km+ - Var   Var 4 kt METAR EHVK 221225Z AUTO VRB04KT 9999 FEW042 20/09 Q1014 BLU
13:55
V
19 °C 10 km+ 4.100 ft Var   Var 5 kt METAR EHVK 221155Z AUTO VRB05KT 9999 BKN041 19/09 Q1015 BLU
13:25
V
19 °C 10 km+ 25.000 ft Var   Var 4 kt METAR EHVK 221125Z AUTO VRB04KT 9999 OVC250 19/08 Q1015 BLU
12:55
V
19 °C 10 km+ 28.000 ft Var   Var 6 kt METAR EHVK 221055Z AUTO VRB06KT 9999 FEW041 BKN280 19/09 Q1016 BLU
12:25
V
18 °C 10 km+ 25.000 ft Var   Var 2 kt METAR EHVK 221025Z AUTO VRB02KT 9999 FEW042 OVC250 18/09 Q1016 BLU
11:55
V
18 °C 10 km+ - Var   Var 4 kt METAR EHVK 220955Z AUTO VRB04KT 9999 SCT035 SCT230 18/09 Q1016 BLU
11:25
V
18 °C 10 km+ - 090°   090° 4 kt METAR EHVK 220925Z AUTO 09004KT 040V160 9999 SCT240 18/10 Q1016 BLU
10:55
V
18 °C 10 km+ - Var   Var 5 kt METAR EHVK 220855Z AUTO VRB05KT 9999 SCT270 18/09 Q1017 BLU
10:25
V
17 °C 10 km+ 32.000 ft Var   Var 3 kt METAR EHVK 220825Z AUTO VRB03KT 9999 BKN320 17/09 Q1017 BLU
09:55
V
17 °C 10 km+ 23.000 ft Var   Var 3 kt METAR EHVK 220755Z AUTO VRB03KT 9999 FEW040 BKN230 BKN320 17/10 Q1017 BLU
09:25
V
16 °C 10 km+ 3.900 ft Var   Var 4 kt METAR EHVK 220725Z AUTO VRB04KT 9999 OVC039 16/10 Q1017 BLU
08:55
V
15 °C 10 km+ 34.000 ft 100°   100° 4 kt METAR EHVK 220655Z AUTO 10004KT 050V150 9999 FEW043 BKN340 15/10 Q1017 BLU
08:25
V
14 °C 10 km+ 34.000 ft 090°   090° 4 kt METAR EHVK 220625Z AUTO 09004KT 040V120 9999 OVC340 14/10 Q1017 BLU
07:55
V
12 °C 10 km+ 22.000 ft Var   Var 2 kt METAR EHVK 220555Z AUTO VRB02KT 9999 OVC220 12/10 Q1017 BLU
07:36
V
11 °C 9 km 23.000 ft Var   Var 2 kt METAR EHVK 220536Z AUTO VRB02KT 9000 BR OVC230 11/10 Q1017 BLU
07:25
V
11 °C 8 km - Var   Var 3 kt METAR EHVK 220525Z AUTO VRB03KT 8000 BR FEW340 11/10 Q1017 BLU
07:07
M
10 °C 7 km 24.000 ft Var   Var 2 kt METAR EHVK 220507Z AUTO VRB02KT 7000 BR OVC240 10/09 Q1017 WHT
06:57
V
10 °C 8 km 24.000 ft 050°   050° 2 kt METAR EHVK 220457Z AUTO 05002KT 8000 BR BKN240 OVC290 10/09 Q1017 BLU
06:55
M
10 °C 6 km 23.000 ft 060°   060° 2 kt METAR EHVK 220455Z AUTO 06002KT 6000 BR BKN230 OVC290 10/09 Q1017 WHT
06:37
M
9 °C 5 km 30.000 ft 060°   060° 2 kt METAR EHVK 220437Z AUTO 06002KT 5000 BR OVC300 09/09 Q1017 WHT
06:29
I
9 °C 4,7 km 30.000 ft Var   Var 2 kt METAR EHVK 220429Z AUTO VRB02KT 4700 BR OVC300 09/09 Q1018 GRN
06:25
I
9 °C 2,9 km 31.000 ft Var   Var 2 kt METAR EHVK 220425Z AUTO VRB02KT 2900 BR BKN310 09/09 Q1018 YLO
06:19
I
8 °C 2,8 km - 060°   060° 2 kt METAR EHVK 220419Z AUTO 06002KT 2800 BR FEW320 08/08 Q1018 YLO
06:14
M
8 °C 7 km - 060°   060° 2 kt METAR EHVK 220414Z AUTO 06002KT 7000 BR NCD 08/08 Q1018 WHT
06:09
I
8 °C 1,9 km - 060°   060° 2 kt METAR EHVK 220409Z AUTO 06002KT 1900 BR NCD 08/08 Q1017 YLO
05:59
I
8 °C 3,4 km - 050°   050° 1 kt METAR EHVK 220359Z AUTO 05001KT 3400 BR SCT240 SCT300 08/08 Q1018 YLO
05:55
V
8 °C 8 km 24.000 ft 030°   030° 1 kt METAR EHVK 220355Z AUTO 03001KT 8000 BR BKN240 BKN300 08/08 Q1018 BLU
05:35
V
8 °C 10 km+ - 020°   020° 1 kt METAR EHVK 220335Z AUTO 02001KT 9999 SCT260 08/08 Q1018 BLU
05:25
V
8 °C 9 km 4.400 ft 020°   020° 2 kt METAR EHVK 220325Z AUTO 02002KT 9000 BR BKN044 BKN049 BKN290 08/08 Q1018 BLU
05:11
V
9 °C 9 km - 010°   010° 2 kt METAR EHVK 220311Z AUTO 01002KT 9000 BR NCD 09/08 Q1018 BLU
05:05
M
8 °C 7 km - 010°   010° 2 kt METAR EHVK 220305Z AUTO 01002KT 7000 BR NCD 08/08 Q1018 WHT
04:55
V
9 °C 10 km+ - 040°   040° 1 kt METAR EHVK 220255Z AUTO 04001KT 9999 SCT040 09/08 Q1018 BLU
04:44
V
9 °C 10 km+ - 050°   050° 2 kt METAR EHVK 220244Z AUTO 05002KT 9999 NCD 09/09 Q1018 BLU
04:32
M
9 °C 7 km - 030°   030° 2 kt METAR EHVK 220232Z AUTO 03002KT 7000 BR NCD 09/09 Q1018 WHT
04:25
V
9 °C 10 km+ - 030°   030° 1 kt METAR EHVK 220225Z AUTO 03001KT 9999 NCD 09/09 Q1018 BLU
03:55
V
9 °C 10 km+ 4.900 ft Var   Var 1 kt METAR EHVK 220155Z AUTO VRB01KT 9999 SCT043 BKN049 09/09 Q1018 BLU
03:25
V
9 °C 10 km+ - Var   Var 1 kt METAR EHVK 220125Z AUTO VRB01KT 9999 NCD 09/08 Q1018 BLU
02:55
V
10 °C 10 km+ - 040°   040° 2 kt METAR EHVK 220055Z AUTO 04002KT 9999 FEW210 10/09 Q1019 BLU
02:25
V
10 °C 10 km+ 21.000 ft Var   Var 1 kt METAR EHVK 220025Z AUTO VRB01KT 9999 FEW051 SCT058 BKN210 10/09 Q1019 BLU
01:55
V
10 °C 10 km+ 5.800 ft 070°   070° 2 kt METAR EHVK 212355Z AUTO 07002KT 9999 FEW045 SCT050 BKN058 10/09 Q1019 BLU
01:25
V
10 °C 10 km+ 5.000 ft Var   Var 2 kt METAR EHVK 212325Z AUTO VRB02KT 9999 SCT046 BKN050 BKN056 10/09 Q1019 BLU
00:55
V
10 °C 10 km+ 4.300 ft Var   000° 0 kt METAR EHVK 212255Z AUTO 00000KT 9999 BKN043 OVC047 10/09 Q1020 BLU
00:25
V
10 °C 10 km+ - 340°   340° 1 kt METAR EHVK 212225Z AUTO 34001KT 9999 NCD 10/09 Q1019 BLU

21 maggio 2022

Tempo Codice Tempo metereologico Temp. Vista Nuvole Vento METAR/SPECI
23:55
V
12 °C 10 km+ - 020°   020° 3 kt METAR EHVK 212155Z AUTO 02003KT 340V040 9999 NCD 12/10 Q1019 BLU
23:25
V
12 °C 10 km+ - 360°   360° 4 kt METAR EHVK 212125Z AUTO 36004KT 9999 FEW210 12/09 Q1020 BLU
22:55
V
12 °C 10 km+ - 340°   340° 1 kt METAR EHVK 212055Z AUTO 34001KT 9999 NCD 12/10 Q1020 BLU
22:25
V
12 °C 10 km+ - 310°   310° 2 kt METAR EHVK 212025Z AUTO 31002KT 9999 FEW240 12/09 Q1020 BLU
21:55
V
13 °C 10 km+ 31.000 ft 310°   310° 1 kt METAR EHVK 211955Z AUTO 31001KT 9999 OVC310 13/09 Q1020 BLU
21:25
V
15 °C 10 km+ 26.000 ft 340°   340° 1 kt METAR EHVK 211925Z AUTO 34001KT 9999 OVC260 15/10 Q1020 BLU
20:55
V
16 °C 10 km+ 29.000 ft Var   Var 2 kt METAR EHVK 211855Z AUTO VRB02KT 9999 FEW057 OVC290 16/09 Q1020 BLU
20:25
V
17 °C 10 km+ 12.000 ft 300°   300° 4 kt METAR EHVK 211825Z AUTO 30004KT 280V350 9999 OVC120 17/09 Q1020 BLU
19:55
V
18 °C 10 km+ 13.000 ft 320°   320° 3 kt METAR EHVK 211755Z AUTO 32003KT 270V360 9999 OVC130 18/10 Q1020 BLU
19:25
V
18 °C 10 km+ 13.000 ft 310°   310° 4 kt METAR EHVK 211725Z AUTO 31004KT 230V360 9999 OVC130 18/10 Q1020 BLU
18:55
V
18 °C 10 km+ 13.000 ft 290°   290° 5 kt METAR EHVK 211655Z AUTO 29005KT 270V010 9999 SCT036 BKN130 BKN300 18/09 Q1020 BLU
18:25
V
18 °C 10 km+ 14.000 ft 330°   330° 6 kt METAR EHVK 211625Z AUTO 33006KT 230V350 9999 FEW037 SCT046 OVC140 18/10 Q1020 BLU
17:55
V
19 °C 10 km+ 5.900 ft 280°   280° 5 kt METAR EHVK 211555Z AUTO 28005KT 210V340 9999 FEW039 SCT046 BKN059 19/09 Q1020 BLU
17:25
V
19 °C 10 km+ 14.000 ft 270°   270° 5 kt METAR EHVK 211525Z AUTO 27005KT 220V330 9999 FEW042 SCT057 OVC140 19/09 Q1020 BLU
16:55
V
18 °C 10 km+ 4.600 ft 270°   270° 8 kt METAR EHVK 211455Z AUTO 27008KT 230V340 9999 SCT041 BKN046 BKN052 18/09 Q1021 BLU
16:25
V
18 °C 10 km+ 3.900 ft 280°   280° 7 kt METAR EHVK 211425Z AUTO 28007KT 240V350 9999 BKN039 OVC044 18/09 Q1021 BLU
15:55
V
19 °C 10 km+ 4.000 ft 260°   260° 7 kt METAR EHVK 211355Z AUTO 26007KT 230V320 9999 BKN040 BKN060 OVC150 19/08 Q1021 BLU
15:25
V
18 °C 10 km+ 5.000 ft 260°   260° 10 kt METAR EHVK 211325Z AUTO 26010KT 220V300 9999 FEW041 BKN050 BKN061 18/09 Q1021 BLU
14:55
V
18 °C 10 km+ 5.400 ft 260°   260° 10 kt METAR EHVK 211255Z AUTO 26010KT 230V330 9999 FEW038 BKN054 BKN059 18/09 Q1021 BLU
14:25
V
18 °C 10 km+ 4.900 ft 270°   270° 7 kt METAR EHVK 211225Z AUTO 27007KT 230V320 9999 FEW036 SCT044 BKN049 18/09 Q1021 BLU
13:55
V
17 °C 10 km+ 3.100 ft 270°   270° 8 kt METAR EHVK 211155Z AUTO 27008KT 220V320 9999 SCT027 BKN031 BKN037 17/10 Q1021 BLU
13:25
V
17 °C 10 km+ 5.300 ft 250°   250° 11 kt METAR EHVK 211125Z AUTO 25011KT 220V280 9999 FEW033 SCT045 OVC053 17/10 Q1021 BLU
12:55
V
18 °C 10 km+ 6.100 ft 250°   250° 11 kt METAR EHVK 211055Z AUTO 25011KT 210V310 9999 FEW032 SCT056 BKN061 18/10 Q1021 BLU
12:25
V
17 °C 10 km+ 6.300 ft 270°   270° 8 kt METAR EHVK 211025Z AUTO 27008KT 190V330 9999 FEW027 SCT058 BKN063 17/10 Q1021 BLU
12:08
V
17 °C 10 km+ 3.100 ft 240°   240° 10 kt METAR EHVK 211008Z AUTO 24010KT 210V300 9999 FEW023 SCT028 BKN031 17/11 Q1021 BLU
11:59
M
16 °C 10 km+ 2.400 ft 250°   250° 9 kt METAR EHVK 210959Z AUTO 25009KT 220V320 9999 -RA BKN024 BKN033 BKN047 16/10 Q1021 WHT
11:55
M
16 °C 10 km+ 2.900 ft 260°   260° 8 kt METAR EHVK 210955Z AUTO 26008KT 230V320 9999 SCT024 BKN029 BKN033 16/10 Q1021 WHT
11:43
M
16 °C 10 km+ 2.900 ft 240°   240° 10 kt METAR EHVK 210943Z AUTO 24010KT 200V270 9999 SCT022 SCT026 BKN029 16/10 Q1021 WHT
11:25
M
16 °C 10 km+ 2.200 ft 260°   260° 8 kt METAR EHVK 210925Z AUTO 26008KT 220V310 9999 BKN022 BKN026 BKN029 16/10 Q1021 WHT
10:55
M
15 °C 10 km+ 2.300 ft 250°   250° 10 kt METAR EHVK 210855Z AUTO 25010KT 200V320 9999 SCT020 BKN023 OVC026 15/10 Q1021 WHT
10:38
M
15 °C 10 km+ 2.300 ft 250°   250° 12 kt METAR EHVK 210838Z AUTO 25012KT 210V280 9999 FEW018 BKN023 BKN026 15/10 Q1021 WHT
10:34
M
15 °C 10 km+ 2.500 ft 250°   250° 11 kt METAR EHVK 210834Z AUTO 25011KT 200V290 9999 SCT021 BKN025 BKN032 15/10 Q1021 WHT
10:25
V
16 °C 10 km+ - 250°   250° 10 kt METAR EHVK 210825Z AUTO 25010KT 220V290 9999 FEW023 SCT042 16/10 Q1021 BLU
10:19
V
15 °C 10 km+ 3.700 ft 260°   260° 10 kt METAR EHVK 210819Z AUTO 26010KT 220V290 9999 FEW019 SCT025 BKN037 15/10 Q1021 BLU
10:02
M
15 °C 10 km+ 2.200 ft 240°   240° 13 kt METAR EHVK 210802Z AUTO 24013KT 200V280 9999 FEW016 BKN022 BKN027 15/10 Q1021 WHT
09:58
V
16 °C 10 km+ 3.000 ft 240°   240° 12 kt METAR EHVK 210758Z AUTO 24012KT 200V280 9999 FEW016 SCT022 BKN030 16/11 Q1021 WHT
09:55
M
15 °C 10 km+ 2.900 ft 250°   250° 11 kt METAR EHVK 210755Z AUTO 25011KT 200V280 9999 FEW016 SCT021 BKN029 15/11 Q1021 WHT
09:29
M
14 °C 10 km+ 1.700 ft 240°   240° 10 kt METAR EHVK 210729Z AUTO 24010KT 190V290 9999 FEW014 BKN017 BKN020 14/11 Q1020 WHT
09:25
M
14 °C 10 km+ 1.700 ft 250°   250° 10 kt METAR EHVK 210725Z AUTO 25010KT 190V290 9999 SCT014 BKN017 BKN023 14/11 Q1020 GRN
09:05
M
14 °C 10 km+ 1.900 ft 240°   240° 11 kt METAR EHVK 210705Z AUTO 24011KT 210V270 9999 FEW013 SCT016 OVC019 14/11 Q1020 WHT
08:59
M
14 °C 10 km+ 1.300 ft 240°   240° 10 kt METAR EHVK 210659Z AUTO 24010KT 220V290 9999 BKN013 BKN015 OVC019 14/11 Q1020 GRN
08:55
M
14 °C 10 km+ 1.500 ft 250°   250° 11 kt METAR EHVK 210655Z AUTO 25011KT 220V280 9999 SCT013 OVC015 14/10 Q1020 GRN
08:41
M
14 °C 10 km+ 1.500 ft 240°   240° 10 kt METAR EHVK 210641Z AUTO 24010KT 210V280 9999 FEW012 BKN015 BKN021 14/11 Q1020 WHT
08:25
M
13 °C 10 km+ 1.400 ft 230°   230° 11 kt METAR EHVK 210625Z AUTO 23011KT 200V270 9999 SCT011 BKN014 BKN017 13/11 Q1020 GRN
08:18
M
13 °C 10 km+ 1.400 ft 230°   230° 10 kt METAR EHVK 210618Z AUTO 23010KT 200V260 9999 FEW011 BKN014 BKN017 13/11 Q1020 GRN
07:55
M
13 °C 10 km+ 1.300 ft 230°   230° 10 kt METAR EHVK 210555Z AUTO 23010KT 190V260 9999 FEW011 BKN013 OVC016 13/10 Q1020 GRN
07:25
M
13 °C 10 km+ 1.300 ft 220°   220° 9 kt METAR EHVK 210525Z AUTO 22009KT 190V260 9999 BKN013 OVC015 13/10 Q1020 GRN
07:11
M
12 °C 10 km+ 1.500 ft 230°   230° 9 kt METAR EHVK 210511Z AUTO 23009KT 190V260 9999 SCT013 OVC015 12/10 Q1020 GRN
07:06
M
12 °C 10 km+ 1.500 ft 230°   230° 8 kt METAR EHVK 210506Z AUTO 23008KT 190V260 9999 FEW013 BKN015 OVC018 12/10 Q1020 WHT
06:56
M
12 °C 10 km+ 1.600 ft 230°   230° 9 kt METAR EHVK 210456Z AUTO 23009KT 200V270 9999 SCT014 OVC016 12/10 Q1020 GRN
06:55
M
12 °C 10 km+ 1.600 ft 230°   230° 9 kt METAR EHVK 210455Z AUTO 23009KT 200V260 9999 FEW014 BKN016 OVC020 12/10 Q1020 WHT
Dati più vecchi

Scarica la nostra applicazione

Facile accesso a tutte le previsioni dell'aviazione sul tuo cellulare e tablet.
Con molte caratteristiche non disponibili sul sito web, come il supporto offline e una lista personale di aeroporti.

Noi e le terze parti seguiamo il tuo comportamento in internet sul nostro sito web con i cookie. Se continui, riteniamo che tu sia d'accordo con la nostra politica sui cookie. Per saperne di più